createdAt,value
2022-10-01T00:01:00.335Z,50.60
2022-10-01T00:03:28.669Z,49.20
2022-10-01T00:06:00.281Z,49.00
2022-10-01T00:08:28.439Z,46.40
2022-10-01T00:10:55.105Z,47.30
2022-10-01T00:13:22.539Z,46.50
2022-10-01T00:15:49.184Z,45.20
2022-10-01T00:18:15.695Z,43.20
2022-10-01T00:20:43.232Z,42.40
2022-10-01T00:23:11.473Z,40.40
2022-10-01T00:25:39.038Z,38.50
2022-10-01T00:28:06.028Z,30.80
2022-10-01T00:30:35.276Z,31.80
2022-10-01T00:33:05.113Z,31.20
2022-10-01T00:35:31.664Z,31.10
2022-10-01T00:37:58.303Z,34.10
2022-10-01T00:40:24.854Z,33.40
2022-10-01T00:42:51.445Z,32.80
2022-10-01T00:45:18.023Z,35.50
2022-10-01T00:47:53.477Z,33.10
2022-10-01T00:50:25.751Z,34.00
2022-10-01T00:52:59.042Z,33.20
2022-10-01T00:55:31.022Z,33.50
2022-10-01T00:57:58.488Z,33.40
2022-10-01T01:00:25.257Z,33.30
2022-10-01T01:02:51.879Z,32.30
2022-10-01T01:05:19.595Z,32.00
2022-10-01T01:07:49.869Z,30.60
2022-10-01T01:10:38.326Z,26.20
2022-10-01T01:13:15.925Z,33.60
2022-10-01T01:16:00.537Z,35.40
2022-10-01T01:18:41.261Z,33.20
2022-10-01T01:21:19.653Z,34.00
2022-10-01T01:24:14.381Z,33.30
2022-10-01T01:27:05.709Z,34.70
2022-10-01T01:32:14.806Z,33.10
2022-10-01T01:34:45.701Z,33.40
2022-10-01T01:37:17.413Z,32.00
2022-10-01T01:39:48.823Z,32.90
2022-10-01T01:42:21.297Z,31.60
2022-10-01T01:44:49.789Z,29.70
2022-10-01T01:47:20.021Z,29.40
2022-10-01T01:49:46.975Z,28.70
2022-10-01T01:52:15.182Z,28.10
2022-10-01T01:54:43.840Z,29.70
2022-10-01T01:57:12.548Z,31.50
2022-10-01T01:59:40.642Z,28.80
2022-10-01T02:02:10.367Z,29.70
2022-10-01T02:04:57.139Z,28.70
2022-10-01T02:07:32.589Z,29.80
2022-10-01T02:10:01.794Z,31.80
2022-10-01T02:13:13.496Z,30.60
2022-10-01T02:15:49.204Z,29.00
2022-10-01T02:18:47.746Z,28.90
2022-10-01T02:21:40.404Z,27.70
2022-10-01T02:24:14.933Z,27.90
2022-10-01T02:26:46.704Z,28.50
2022-10-01T02:29:17.038Z,29.70
2022-10-01T02:31:46.434Z,30.80
2022-10-01T02:34:15.455Z,29.40
2022-10-01T02:36:45.497Z,29.00
2022-10-01T02:39:16.805Z,28.90
2022-10-01T02:41:47.545Z,29.20
2022-10-01T02:44:18.487Z,29.50
2022-10-01T02:47:17.081Z,28.70
2022-10-01T02:49:44.309Z,27.30
2022-10-01T02:52:32.793Z,29.90
2022-10-01T02:55:03.532Z,28.00
2022-10-01T02:57:30.202Z,27.60
2022-10-01T03:00:03.985Z,28.50
2022-10-01T03:02:31.647Z,27.70
2022-10-01T03:04:59.473Z,29.60
2022-10-01T03:07:28.915Z,27.30
2022-10-01T03:09:56.400Z,30.00
2022-10-01T03:12:23.558Z,28.80
2022-10-01T03:14:50.507Z,29.80
2022-10-01T03:17:18.079Z,28.50
2022-10-01T03:19:45.200Z,29.90
2022-10-01T03:22:17.200Z,30.90
2022-10-01T03:24:43.947Z,34.90
2022-10-01T03:27:10.748Z,36.30
2022-10-01T03:29:37.639Z,39.50
2022-10-01T03:32:04.179Z,33.10
2022-10-01T03:34:30.824Z,36.80
2022-10-01T03:36:57.368Z,35.20
2022-10-01T03:39:24.011Z,34.70
2022-10-01T03:41:50.652Z,31.60
2022-10-01T03:44:17.340Z,30.30
2022-10-01T03:46:44.043Z,28.40
2022-10-01T03:49:11.100Z,29.20
2022-10-01T03:51:39.265Z,27.40
2022-10-01T03:54:07.906Z,27.70
2022-10-01T03:56:35.751Z,27.10
2022-10-01T03:59:02.554Z,25.30
2022-10-01T04:01:29.201Z,25.80
2022-10-01T04:03:55.737Z,23.00
2022-10-01T04:06:22.330Z,25.30
2022-10-01T04:08:48.972Z,25.30
2022-10-01T04:11:15.725Z,25.00
2022-10-01T04:13:42.273Z,24.10
2022-10-01T04:16:08.968Z,24.70
2022-10-01T04:18:35.854Z,24.40
2022-10-01T04:21:08.071Z,24.60
2022-10-01T04:23:34.876Z,23.80
2022-10-01T04:26:02.484Z,22.20
2022-10-01T04:28:30.973Z,23.30
2022-10-01T04:30:57.908Z,22.00
2022-10-01T04:33:24.423Z,22.10
2022-10-01T04:35:50.953Z,23.60
2022-10-01T04:38:17.494Z,23.30
2022-10-01T04:40:44.359Z,23.60
2022-10-01T04:43:11.791Z,23.40
2022-10-01T04:45:38.736Z,23.90
2022-10-01T04:48:05.909Z,26.40
2022-10-01T04:50:32.911Z,27.00
2022-10-01T04:52:59.706Z,30.40
2022-10-01T04:55:26.783Z,27.20
2022-10-01T04:57:53.709Z,28.90
2022-10-01T05:00:22.956Z,34.00
2022-10-01T05:02:50.706Z,39.30
2022-10-01T05:05:19.003Z,37.40
2022-10-01T05:07:46.266Z,37.00
2022-10-01T05:10:15.422Z,37.20
2022-10-01T05:12:42.296Z,34.50
2022-10-01T05:15:09.561Z,31.70
2022-10-01T05:17:36.188Z,30.00
2022-10-01T05:20:05.413Z,32.50
2022-10-01T05:22:31.932Z,29.70
2022-10-01T05:24:59.038Z,29.20
2022-10-01T05:27:27.030Z,30.10
2022-10-01T05:29:53.530Z,31.70
2022-10-01T05:32:20.043Z,31.90
2022-10-01T05:34:49.994Z,31.20
2022-10-01T05:37:20.092Z,31.50
2022-10-01T05:39:46.857Z,32.60
2022-10-01T05:42:13.371Z,32.10
2022-10-01T05:44:39.910Z,33.60
2022-10-01T05:47:07.474Z,33.40
2022-10-01T05:49:33.943Z,33.80
2022-10-01T05:52:01.012Z,38.40
2022-10-01T05:54:28.844Z,39.60
2022-10-01T05:56:58.763Z,38.50
2022-10-01T05:59:28.456Z,37.70
2022-10-01T06:01:57.825Z,34.20
2022-10-01T06:04:24.844Z,32.50
2022-10-01T06:06:51.360Z,32.00
2022-10-01T06:09:17.925Z,34.40
2022-10-01T06:11:44.472Z,33.90
2022-10-01T06:14:10.916Z,31.40
2022-10-01T06:16:37.501Z,29.50
2022-10-01T06:19:04.145Z,30.10
2022-10-01T06:21:30.747Z,26.60
2022-10-01T06:23:58.196Z,28.50
2022-10-01T06:26:24.950Z,28.60
2022-10-01T06:28:52.171Z,28.10
2022-10-01T06:31:19.920Z,24.50
2022-10-01T06:33:46.726Z,24.80
2022-10-01T06:36:13.268Z,28.40
2022-10-01T06:38:39.787Z,30.40
2022-10-01T06:41:06.353Z,28.80
2022-10-01T06:43:33.692Z,31.00
2022-10-01T06:46:05.177Z,28.40
2022-10-01T06:48:32.779Z,31.30
2022-10-01T06:50:59.588Z,30.90
2022-10-01T06:53:28.789Z,32.30
2022-10-01T06:55:55.641Z,32.60
2022-10-01T06:58:24.127Z,30.50
2022-10-01T07:00:50.934Z,30.80
2022-10-01T07:03:20.807Z,32.10
2022-10-01T07:05:49.068Z,26.90
2022-10-01T07:08:16.355Z,25.20
2022-10-01T07:10:42.984Z,24.20
2022-10-01T07:13:17.368Z,25.00
2022-10-01T07:15:45.283Z,24.40
2022-10-01T07:18:13.224Z,23.80
2022-10-01T07:20:41.033Z,20.80
2022-10-01T07:23:12.017Z,21.30
2022-10-01T07:28:08.665Z,21.50
2022-10-01T07:30:35.379Z,20.60
2022-10-01T07:33:01.921Z,22.60
2022-10-01T07:35:28.462Z,22.60
2022-10-01T07:37:54.940Z,23.90
2022-10-01T07:40:21.851Z,22.20
2022-10-01T07:42:56.075Z,21.90
2022-10-01T07:45:23.733Z,21.70
2022-10-01T07:47:55.172Z,21.50
2022-10-01T07:50:22.124Z,22.30
2022-10-01T07:52:55.888Z,22.10
2022-10-01T07:55:24.514Z,23.10
2022-10-01T07:57:55.307Z,22.80
2022-10-01T08:00:24.619Z,23.60
2022-10-01T08:02:53.383Z,22.10
2022-10-01T08:05:21.886Z,25.70
2022-10-01T08:07:49.736Z,24.60
2022-10-01T08:10:18.765Z,25.30
2022-10-01T08:12:46.200Z,24.20
2022-10-01T08:15:15.562Z,24.40
2022-10-01T08:17:42.960Z,23.50
2022-10-01T08:20:11.876Z,22.00
2022-10-01T08:22:42.078Z,22.10
2022-10-01T08:25:09.424Z,20.10
2022-10-01T08:27:36.714Z,19.90
2022-10-01T08:30:04.069Z,19.80
2022-10-01T08:32:30.611Z,20.10
2022-10-01T08:34:57.258Z,20.40
2022-10-01T08:37:25.536Z,18.00
2022-10-01T08:39:52.105Z,18.60
2022-10-01T08:42:38.491Z,19.10
2022-10-01T08:45:12.708Z,19.20
2022-10-01T08:47:43.865Z,18.20
2022-10-01T08:50:22.588Z,18.40
2022-10-01T08:52:57.768Z,18.00
2022-10-01T08:55:29.622Z,18.90
2022-10-01T08:58:00.924Z,17.40
2022-10-01T09:00:30.604Z,18.40
2022-10-01T09:03:00.551Z,16.00
2022-10-01T09:05:44.839Z,16.00
2022-10-01T09:08:20.615Z,17.50
2022-10-01T09:10:53.283Z,16.60
2022-10-01T09:13:37.595Z,15.10
2022-10-01T09:16:29.368Z,16.10
2022-10-01T09:19:02.227Z,16.70
2022-10-01T09:21:36.475Z,14.50
2022-10-01T09:24:09.375Z,16.00
2022-10-01T09:26:39.152Z,14.20
2022-10-01T09:29:15.259Z,14.70
2022-10-01T09:31:47.468Z,13.90
2022-10-01T09:34:19.623Z,14.00
2022-10-01T09:37:07.547Z,15.60
2022-10-01T09:40:05.324Z,14.30
2022-10-01T09:42:32.511Z,14.00
2022-10-01T09:44:59.735Z,13.90
2022-10-01T09:47:26.976Z,13.30
2022-10-01T09:49:55.046Z,12.90
2022-10-01T09:52:32.775Z,13.20
2022-10-01T09:55:01.995Z,12.30
2022-10-01T09:57:33.935Z,12.00
2022-10-01T10:00:20.851Z,13.00
2022-10-01T10:02:50.176Z,12.20
2022-10-01T10:05:18.339Z,12.00
2022-10-01T10:07:52.064Z,13.20
2022-10-01T10:10:25.714Z,13.90
2022-10-01T10:13:10.505Z,13.20
2022-10-01T10:15:51.020Z,13.90
2022-10-01T10:18:28.100Z,14.20
2022-10-01T10:20:56.211Z,13.20
2022-10-01T10:23:25.099Z,14.50
2022-10-01T10:26:06.530Z,14.10
2022-10-01T10:28:44.885Z,13.30
2022-10-01T10:31:17.098Z,11.60
2022-10-01T10:33:54.622Z,12.40
2022-10-01T10:36:25.480Z,12.50
2022-10-01T10:38:52.659Z,11.10
2022-10-01T10:41:21.994Z,10.80
2022-10-01T10:43:49.233Z,10.00
2022-10-01T10:46:32.666Z,9.50
2022-10-01T10:49:16.012Z,9.20
2022-10-01T10:51:51.665Z,8.30
2022-10-01T10:54:34.772Z,8.50
2022-10-01T10:57:17.985Z,8.00
2022-10-01T10:59:57.390Z,6.50
2022-10-01T11:02:25.515Z,6.60
2022-10-01T11:04:54.525Z,5.80
2022-10-01T11:07:24.174Z,6.50
2022-10-01T11:10:15.359Z,7.10
2022-10-01T11:13:09.039Z,6.90
2022-10-01T11:16:22.746Z,6.90
2022-10-01T11:19:01.387Z,6.40
2022-10-01T11:21:42.592Z,6.60
2022-10-01T11:24:37.409Z,6.10
2022-10-01T11:27:22.276Z,7.00
2022-10-01T11:30:13.912Z,7.10
2022-10-01T11:33:10.005Z,7.80
2022-10-01T11:35:55.532Z,8.30
2022-10-01T11:38:41.317Z,8.60
2022-10-01T11:41:27.007Z,8.00
2022-10-01T11:43:57.645Z,8.30
2022-10-01T11:46:46.956Z,9.00
2022-10-01T11:49:28.819Z,8.20
2022-10-01T11:52:14.114Z,8.20
2022-10-01T11:55:08.905Z,8.90
2022-10-01T11:57:35.752Z,8.80
2022-10-01T12:00:11.621Z,9.30
2022-10-01T12:02:55.295Z,10.30
2022-10-01T12:05:27.081Z,11.40
2022-10-01T12:08:16.349Z,11.40
2022-10-01T12:10:55.226Z,11.50
2022-10-01T12:13:48.285Z,11.90
2022-10-01T12:16:23.318Z,11.50
2022-10-01T12:19:16.980Z,12.40
2022-10-01T12:21:58.748Z,13.40
2022-10-01T12:24:34.113Z,14.60
2022-10-01T12:27:19.545Z,14.70
2022-10-01T12:29:46.080Z,14.70
2022-10-01T12:32:47.375Z,15.70
2022-10-01T12:35:22.928Z,15.80
2022-10-01T12:38:02.132Z,16.20
2022-10-01T12:40:55.797Z,16.60
2022-10-01T12:43:36.172Z,17.50
2022-10-01T12:46:13.507Z,17.60
2022-10-01T12:48:49.020Z,18.00
2022-10-01T12:51:26.512Z,17.50
2022-10-01T12:54:14.550Z,18.10
2022-10-01T12:56:51.645Z,18.20
2022-10-01T12:59:37.128Z,17.30
2022-10-01T13:02:06.743Z,16.20
2022-10-01T13:04:49.359Z,16.50
2022-10-01T13:07:37.238Z,16.60
2022-10-01T13:10:39.058Z,16.80
2022-10-01T13:13:26.144Z,18.50
2022-10-01T13:16:17.351Z,17.40
2022-10-01T13:19:20.092Z,18.00
2022-10-01T13:22:04.814Z,16.10
2022-10-01T13:25:18.897Z,15.50
2022-10-01T13:27:55.662Z,15.30
2022-10-01T13:30:24.761Z,14.50
2022-10-01T13:32:59.512Z,13.20
2022-10-01T13:35:39.815Z,12.90
2022-10-01T13:38:17.270Z,12.80
2022-10-01T13:40:44.545Z,13.10
2022-10-01T13:43:21.359Z,12.90
2022-10-01T13:45:51.195Z,13.00
2022-10-01T13:48:19.797Z,13.10
2022-10-01T13:51:02.179Z,12.60
2022-10-01T13:53:31.314Z,13.70
2022-10-01T13:55:57.847Z,13.90
2022-10-01T13:58:30.467Z,14.70
2022-10-01T14:01:00.249Z,15.00
2022-10-01T14:03:32.537Z,15.40
2022-10-01T14:06:02.230Z,15.60
2022-10-01T14:08:40.618Z,14.80
2022-10-01T14:11:13.124Z,15.00
2022-10-01T14:13:46.991Z,28.60
2022-10-01T14:16:14.760Z,37.00
2022-10-01T14:18:44.247Z,29.90
2022-10-01T14:21:13.422Z,27.80
2022-10-01T14:23:48.765Z,20.70
2022-10-01T14:26:31.978Z,21.50
2022-10-01T14:29:04.354Z,19.00
2022-10-01T14:31:45.537Z,16.50
2022-10-01T14:34:40.057Z,18.30
2022-10-01T14:37:16.233Z,14.10
2022-10-01T14:39:43.686Z,12.90
2022-10-01T14:42:17.256Z,21.70
2022-10-01T14:44:47.134Z,24.40
2022-10-01T14:47:16.663Z,32.70
2022-10-01T14:49:43.264Z,62.50
2022-10-01T14:52:29.843Z,37.80
2022-10-01T14:54:56.224Z,21.00
2022-10-01T14:57:37.706Z,13.00
2022-10-01T15:00:29.016Z,16.40
2022-10-01T15:03:14.652Z,33.80
2022-10-01T15:05:42.214Z,24.40
2022-10-01T15:08:23.838Z,47.80
2022-10-01T15:10:58.128Z,27.30
2022-10-01T15:13:29.319Z,22.60
2022-10-01T15:15:56.385Z,17.80
2022-10-01T15:18:24.373Z,17.90
2022-10-01T15:20:55.217Z,19.20
2022-10-01T15:23:24.133Z,18.00
2022-10-01T15:25:52.232Z,20.40
2022-10-01T15:28:30.699Z,26.10
2022-10-01T15:30:59.464Z,34.20
2022-10-01T15:33:32.501Z,27.70
2022-10-01T15:36:02.533Z,27.40
2022-10-01T15:38:31.094Z,22.40
2022-10-01T15:41:19.638Z,30.00
2022-10-01T15:43:46.819Z,35.70
2022-10-01T15:46:24.564Z,51.30
2022-10-01T15:49:12.704Z,54.80
2022-10-01T15:51:47.300Z,46.90
2022-10-01T15:54:14.353Z,34.80
2022-10-01T15:56:41.460Z,59.20
2022-10-01T15:59:17.932Z,47.90
2022-10-01T16:01:44.772Z,46.80
2022-10-01T16:04:13.416Z,40.10
2022-10-01T16:06:43.188Z,27.70
2022-10-01T16:09:21.708Z,35.50
2022-10-01T16:11:58.645Z,25.20
2022-10-01T16:14:29.793Z,58.10
2022-10-01T16:17:18.161Z,42.40
2022-10-01T16:19:46.766Z,50.10
2022-10-01T16:22:30.244Z,48.00
2022-10-01T16:25:02.549Z,44.50
2022-10-01T16:27:44.150Z,39.90
2022-10-01T16:30:22.991Z,32.20
2022-10-01T16:32:49.825Z,29.20
2022-10-01T16:35:21.879Z,28.70
2022-10-01T16:37:50.440Z,40.10
2022-10-01T16:40:18.602Z,39.10
2022-10-01T16:42:46.243Z,38.10
2022-10-01T16:45:17.660Z,42.00
2022-10-01T16:47:45.104Z,49.90
2022-10-01T16:50:14.073Z,63.10
2022-10-01T16:52:40.635Z,60.10
2022-10-01T16:55:17.088Z,55.10
2022-10-01T16:57:43.933Z,47.40
2022-10-01T17:00:14.463Z,56.90
2022-10-01T17:02:41.927Z,57.40
2022-10-01T17:05:19.299Z,51.90
2022-10-01T17:07:46.321Z,94.60
2022-10-01T17:10:13.736Z,61.80
2022-10-01T17:12:41.505Z,81.40
2022-10-01T17:15:12.875Z,67.20
2022-10-01T17:17:39.405Z,107.40
2022-10-01T17:20:06.149Z,94.30
2022-10-01T17:22:32.595Z,90.50
2022-10-01T17:24:59.089Z,73.10
2022-10-01T17:27:27.209Z,59.00
2022-10-01T17:29:53.675Z,71.80
2022-10-01T17:32:20.193Z,72.80
2022-10-01T17:34:46.832Z,74.20
2022-10-01T17:37:13.579Z,71.50
2022-10-01T17:39:40.122Z,71.70
2022-10-01T17:42:06.772Z,72.30
2022-10-01T17:44:33.313Z,78.20
2022-10-01T17:46:59.759Z,73.50
2022-10-01T17:49:26.398Z,63.10
2022-10-01T17:51:53.139Z,61.80
2022-10-01T17:54:19.888Z,62.00
2022-10-01T17:56:46.622Z,59.20
2022-10-01T17:59:13.287Z,61.70
2022-10-01T18:01:39.825Z,61.30
2022-10-01T18:04:06.469Z,63.10
2022-10-01T18:06:33.579Z,64.00
2022-10-01T18:09:00.370Z,60.60
2022-10-01T18:11:29.115Z,65.20
2022-10-01T18:13:55.909Z,76.00
2022-10-01T18:16:23.487Z,113.70
2022-10-01T18:21:45.958Z,79.80
2022-10-01T18:24:12.498Z,76.80
2022-10-01T18:26:39.277Z,75.90
2022-10-01T18:29:05.946Z,84.20
2022-10-01T18:31:38.417Z,83.00
2022-10-01T18:34:15.126Z,83.70
2022-10-01T18:37:05.139Z,85.20
2022-10-01T18:39:45.350Z,83.30
2022-10-01T18:42:27.409Z,80.70
2022-10-01T18:44:59.705Z,88.60
2022-10-01T18:47:40.462Z,96.00
2022-10-01T18:50:46.102Z,98.20
2022-10-01T18:53:30.963Z,79.40
2022-10-01T18:56:19.551Z,76.80
2022-10-01T18:59:00.337Z,74.80
2022-10-01T19:02:00.638Z,75.90
2022-10-01T19:04:49.124Z,87.70
2022-10-01T19:07:37.725Z,75.60
2022-10-01T19:10:19.483Z,67.70
2022-10-01T19:12:51.657Z,68.30
2022-10-01T19:15:24.705Z,68.40
2022-10-01T19:18:11.526Z,65.20
2022-10-01T19:21:07.647Z,62.70
2022-10-01T19:23:36.922Z,65.90
2022-10-01T19:26:08.944Z,69.10
2022-10-01T19:29:16.383Z,82.30
2022-10-01T19:31:57.666Z,102.70
2022-10-01T19:34:46.335Z,105.10
2022-10-01T19:37:27.891Z,102.60
2022-10-01T19:40:02.888Z,107.10
2022-10-01T19:42:35.914Z,117.90
2022-10-01T19:45:05.438Z,110.30
2022-10-01T19:47:50.432Z,119.10
2022-10-01T19:50:24.039Z,128.00
2022-10-01T19:52:53.816Z,129.20
2022-10-01T19:55:24.042Z,154.00
2022-10-01T19:57:50.726Z,120.50
2022-10-01T20:00:20.277Z,144.40
2022-10-01T20:02:52.451Z,142.00
2022-10-01T20:05:28.883Z,128.20
2022-10-01T20:08:01.377Z,107.50
2022-10-01T20:11:10.094Z,104.50
2022-10-01T20:13:49.941Z,89.10
2022-10-01T20:16:22.181Z,84.10
2022-10-01T20:19:04.117Z,76.10
2022-10-01T20:21:56.359Z,74.80
2022-10-01T20:24:46.552Z,67.00
2022-10-01T20:27:57.089Z,53.40
2022-10-01T20:30:23.671Z,37.60
2022-10-01T20:33:36.866Z,18.10
2022-10-01T20:36:18.126Z,16.10
2022-10-01T20:41:21.863Z,20.30
2022-10-01T20:43:59.930Z,19.60
2022-10-01T20:46:35.358Z,17.40
2022-10-01T20:49:24.956Z,9.50
2022-10-01T20:52:02.456Z,4.70
2022-10-01T20:54:45.127Z,4.00
2022-10-01T20:57:37.519Z,3.70
2022-10-01T21:00:14.141Z,3.70
2022-10-01T21:02:48.697Z,3.30
2022-10-01T21:05:21.514Z,3.70
2022-10-01T21:07:54.854Z,3.70
2022-10-01T21:10:33.308Z,4.20
2022-10-01T21:13:11.468Z,4.60
2022-10-01T21:15:51.027Z,3.70
2022-10-01T21:18:34.321Z,3.10
2022-10-01T21:21:38.543Z,2.70
2022-10-01T21:24:27.093Z,2.70
2022-10-01T21:27:08.703Z,2.00
2022-10-01T21:29:44.095Z,2.20
2022-10-01T21:32:37.726Z,2.30
2022-10-01T21:35:23.314Z,1.80
2022-10-01T21:38:18.810Z,2.20
2022-10-01T21:41:17.733Z,1.80
2022-10-01T21:44:10.105Z,2.00
2022-10-01T21:46:55.155Z,2.60
2022-10-01T21:49:29.376Z,2.40
2022-10-01T21:52:13.235Z,2.30
2022-10-01T21:54:56.053Z,2.60
2022-10-01T21:57:51.773Z,1.70
2022-10-01T22:00:21.541Z,1.60
2022-10-01T22:03:09.675Z,2.00
2022-10-01T22:05:43.757Z,1.90
2022-10-01T22:08:47.840Z,1.80
2022-10-01T22:11:19.608Z,1.50
2022-10-01T22:13:51.554Z,1.60
2022-10-01T22:16:20.285Z,1.80
2022-10-01T22:18:50.932Z,2.30
2022-10-01T22:21:23.844Z,7.80
2022-10-01T22:23:59.169Z,5.10
2022-10-01T22:26:29.737Z,4.40
2022-10-01T22:28:56.963Z,4.30
2022-10-01T22:31:29.690Z,4.10
2022-10-01T22:34:09.387Z,4.00
2022-10-01T22:36:49.148Z,8.30
2022-10-01T22:39:22.041Z,5.50
2022-10-01T22:41:54.731Z,5.60
2022-10-01T22:44:23.119Z,8.20
2022-10-01T22:47:18.363Z,8.20
2022-10-01T22:49:57.248Z,12.00
2022-10-01T22:52:23.785Z,15.60
2022-10-01T22:55:12.035Z,11.70
2022-10-01T22:57:55.057Z,10.30
2022-10-01T23:00:21.810Z,8.70
2022-10-01T23:03:06.886Z,8.50
2022-10-01T23:05:47.505Z,7.40
2022-10-01T23:08:16.964Z,8.40
2022-10-01T23:11:13.317Z,8.50
2022-10-01T23:14:06.321Z,9.00
2022-10-01T23:16:50.963Z,6.70
2022-10-01T23:19:51.282Z,7.10
2022-10-01T23:22:41.562Z,5.10
2022-10-01T23:25:19.058Z,4.30
2022-10-01T23:28:16.719Z,5.60
2022-10-01T23:30:57.240Z,5.30
2022-10-01T23:33:58.043Z,4.60
2022-10-01T23:36:47.010Z,5.40
2022-10-01T23:39:13.454Z,4.60
2022-10-01T23:41:48.119Z,6.10
2022-10-01T23:44:25.935Z,5.60
2022-10-01T23:46:56.007Z,4.10
2022-10-01T23:49:29.448Z,3.30
2022-10-01T23:52:05.679Z,2.70
2022-10-01T23:54:46.188Z,2.40
2022-10-01T23:57:37.703Z,2.10
